Alton, Kansas
Current Conditions -  °F | °C
As of 5:53 PM on Friday 28 Nov 2014 (Local Time) from KRSL Reporting Station
Clear Clear  
Wind Chill: 55°   Ceiling: Unl
Heat Index: 55°   Visibility: 10mi
Dew Point: 32°   Wind: 13mph
Humidity: 42%   Direction: 170°S
Pressure: 29.73"   Gusts: NA
Location:  39.47°N, 98.95°W
Report Text: KRSL 282353Z AUTO 17011KT 10SM CLR 13/00 A2973 RMK AO2 SLP072 T01280000 10233 20128 55001
Loading
Personal Weather Stations






























Interactive Weather Map New forecast layout! Learn more

10-Day Weather Forecast

Advertisements
Track Severe Weather on mobile